• Join FlightAware (Why Join?)
  • Login
  • US Flag 
07:59PM EST


 

Airport Tracker/Info


-or-


 

Live Flight TrackerFlight Track Log ✈ N668DN ✈ 25-Apr-2013 ✈ KPHX - KDTW

Flight Track Log - Related Links

Times and Time Zones

All times are in EDT time to prevent confusion due to time zone crossing. See the N668DN flight status page for this flight to view local times or setup timezone preferences in your user account.

Time Position Orientation Groundspeed Altitude Reporting Facility
EDT Latitude Longitude Course Direction KTS MPH feet Rate Location/Type
03:05PM 33.4333 -112.0333 67° East 165 190 2,000  Level Phoenix TRACON
03:06PM 33.4333 -112.0500 270° West 175 201 2,800 1,920 Climbing Phoenix TRACON
03:07PM 33.4500 -112.1333 284° West 254 292 4,900 2,340 Climbing Phoenix TRACON
03:08PM 33.5887 -111.5645 69° East  Level FlightAware Approximate
03:08PM 33.5167 -112.1333 360° North 284 327 7,800  Level Phoenix TRACON
03:09PM 33.6360 -111.4159 69° East  Level FlightAware Approximate
03:09PM 33.5694 -112.0531 52° Northeast 316 364 10,700  Level Albuquerque Center
03:10PM 33.6832 -111.2672 69° East  Level FlightAware Approximate
03:10PM 33.5861 -111.9378 80° East 354 407 12,900  Level Albuquerque Center
03:11PM 33.7346 -111.1205 67° East  Level FlightAware Approximate
03:11PM 33.6050 -111.8167 79° East 370 426 15,600  Level Albuquerque Center
03:12PM 33.6242 -111.6917 80° East 384 442 17,600 1,740 Climbing Albuquerque Center
03:13PM 33.6450 -111.5561 80° East 413 475 19,300 1,800 Climbing Albuquerque Center
03:14PM 33.6711 -111.3811 80° East 448 516 21,400 1,620 Climbing Albuquerque Center
03:16PM 33.7208 -111.1600 67° East  Level FlightAware Approximate
03:16PM 33.7550 -111.0783 67° East 493 567 24,500  Level Albuquerque Center
03:17PM 33.8097 -110.9236 67° East 503 579 26,000 1,500 Climbing Albuquerque Center
03:18PM 33.8667 -110.7639 67° East 516 594 27,600 1,500 Climbing Albuquerque Center
03:19PM 33.9353 -110.5689 67° East 526 605 29,200 1,380 Climbing Albuquerque Center
03:20PM 33.9928 -110.4033 67° East 534 615 30,500 1,140 Climbing Albuquerque Center
03:21PM 34.0569 -110.2208 67° East 545 627 31,600 1,080 Climbing Albuquerque Center
03:22PM 34.1189 -110.0411 67° East 553 636 32,800 1,260 Climbing Albuquerque Center
03:23PM 34.1750 -109.8789 67° East 551 634 34,300 1,020 Climbing Albuquerque Center
03:24PM 34.2383 -109.6908 68° East 546 628 35,000 300 Climbing Albuquerque Center
03:25PM 34.2925 -109.5339 67° East 535 616 35,000  Level Albuquerque Center
03:26PM 34.3550 -109.3486 68° East 533 613 35,000  Level Albuquerque Center
03:28PM 34.4086 -109.1914 68° East 531 611 35,000  Level Albuquerque Center
03:29PM 34.4639 -109.0036 70° East 531 611 35,000  Level Albuquerque Center
03:30PM 34.5083 -108.8408 72° East 531 611 35,000  Level Albuquerque Center
03:31PM 34.5606 -108.6519 71° East 531 611 35,000  Level Albuquerque Center
03:32PM 34.6053 -108.4892 71° East 531 611 35,000  Level Albuquerque Center
03:33PM 34.6494 -108.3217 72° East 531 611 35,000  Level Albuquerque Center
03:34PM 34.6956 -108.1506 72° East 533 613 35,000  Level Albuquerque Center
03:35PM 34.7414 -107.9797 72° East 533 613 35,000  Level Albuquerque Center
03:36PM 34.7961 -107.7761 72° East 529 609 35,000  Level Albuquerque Center
03:37PM 34.8403 -107.6047 73° East 532 612 35,000  Level Albuquerque Center
03:38PM 34.8853 -107.4342 72° East 530 610 35,000  Level Albuquerque Center
03:39PM 34.9300 -107.2619 72° East 533 613 35,000  Level Albuquerque Center
03:40PM 34.9800 -107.0719 72° East 534 615 35,000  Level Albuquerque Center
03:41PM 35.0211 -106.9067 73° East 533 613 35,000  Level Albuquerque Center
03:42PM 35.0900 -106.7267 65° Northeast 533 613 35,000  Level Albuquerque Center
03:43PM 35.1672 -106.5803 57° Northeast 536 617 35,000  Level Albuquerque Center
03:44PM 35.2417 -106.4306 59° Northeast 534 615 35,000  Level Albuquerque Center
03:46PM 35.3434 -106.2233 59° Northeast  Level FlightAware Approximate
03:46PM 35.4131 -106.0969 59° Northeast 528 608 35,000  Level Albuquerque Center
03:47PM 35.4903 -105.9431 58° Northeast 531 611 35,000  Level Albuquerque Center
03:48PM 35.5717 -105.7792 59° Northeast 527 606 35,000  Level Albuquerque Center
03:49PM 35.6450 -105.6356 58° Northeast 531 611 35,000  Level Albuquerque Center
03:50PM 35.7275 -105.4650 59° Northeast 531 611 35,000  Level Albuquerque Center
03:51PM 35.8050 -105.3094 58° Northeast 528 608 35,000  Level Albuquerque Center
03:52PM 35.8797 -105.1542 59° Northeast 524 603 35,000  Level Albuquerque Center
03:53PM 35.9719 -104.9678 59° Northeast 532 612 35,000  Level Albuquerque Center
03:54PM 36.0472 -104.8119 59° Northeast 526 605 35,000  Level Albuquerque Center
03:55PM 36.1239 -104.6544 59° Northeast 525 604 35,000  Level Albuquerque Center
03:56PM 36.2008 -104.4964 59° Northeast 529 609 35,000  Level Albuquerque Center
03:58PM 36.2764 -104.3392 59° Northeast 527 606 35,000  Level Albuquerque Center
03:59PM 36.3525 -104.1803 59° Northeast 529 609 35,000  Level Albuquerque Center
04:00PM 36.4286 -104.0228 59° Northeast 528 608 35,000  Level Albuquerque Center
04:01PM 36.5039 -103.8639 59° Northeast 528 608 35,000  Level Albuquerque Center
04:02PM 36.5908 -103.6786 60° Northeast 527 606 35,000  Level Albuquerque Center
04:03PM 36.6583 -103.5372 59° Northeast 526 605 35,000  Level Albuquerque Center
04:04PM 36.7403 -103.3619 60° Northeast 525 604 35,000  Level Albuquerque Center
04:05PM 36.8092 -103.2114 60° Northeast 525 604 35,000  Level Albuquerque Center
04:06PM 36.8903 -103.0372 60° Northeast 522 601 35,000  Level Albuquerque Center
04:07PM 36.9589 -102.8861 60° Northeast 523 602 35,000  Level Albuquerque Center
04:08PM 37.0522 -102.6856 60° Northeast 524 603 35,000  Level Albuquerque Center
04:09PM 37.1317 -102.5106 60° Northeast 520 598 35,000  Level Albuquerque Center
04:10PM 37.2006 -102.3597 60° Northeast 520 598 35,000  Level Albuquerque Center
04:11PM 37.2797 -102.1831 61° Northeast 521 600 35,000  Level Albuquerque Center
04:12PM 37.3428 -102.0397 61° Northeast 523 602 35,000  Level Albuquerque Center
04:13PM 37.4231 -101.8608 60° Northeast 525 604 35,000  Level Albuquerque Center
04:15PM 37.5144 -101.6533 61° Northeast 529 609 35,000  Level Kansas City Center
04:16PM 37.5819 -101.4975 61° Northeast 529 609 35,000  Level Kansas City Center
04:17PM 37.6508 -101.3414 61° Northeast 530 610 35,000  Level Kansas City Center
04:18PM 37.7336 -101.1528 61° Northeast 530 610 35,000  Level Kansas City Center
04:19PM 37.8006 -100.9994 61° Northeast 532 612 35,000  Level Kansas City Center
04:20PM 37.8819 -100.8128 61° Northeast 533 613 35,000  Level Kansas City Center
04:21PM 37.9456 -100.6503 64° Northeast 534 615 35,000  Level Kansas City Center
04:22PM 38.0017 -100.4836 67° East 534 615 35,100 600 Climbing Kansas City Center
04:23PM 38.0661 -100.2897 67° East 534 615 36,300 900 Climbing Kansas City Center
04:24PM 38.1222 -100.1247 67° East 533 613 37,000 300 Climbing Kansas City Center
04:25PM 38.1861 -99.9297 67° East 534 615 37,000  Level Kansas City Center
04:26PM 38.2417 -99.7633 67° East 535 616 37,000  Level Kansas City Center
04:27PM 38.3083 -99.5683 66° East 537 618 37,000  Level Kansas City Center
04:28PM 38.3594 -99.4194 66° East 536 617 37,000  Level Kansas City Center
04:29PM 38.4306 -99.2094 67° East 536 617 37,000  Level Kansas City Center
04:30PM 38.4892 -99.0356 67° East 534 615 37,000  Level Kansas City Center
04:31PM 38.5486 -98.8617 66° East 532 612 37,000  Level Kansas City Center
04:32PM 38.6078 -98.6853 67° East 536 617 37,000  Level Kansas City Center
04:33PM 38.6647 -98.5114 67° East 530 610 37,000  Level Kansas City Center
04:34PM 38.7217 -98.3369 67° East 528 608 37,000  Level Kansas City Center
04:35PM 38.7794 -98.1625 67° East 529 609 37,000  Level Kansas City Center
04:36PM 38.8475 -97.9522 67° East 531 611 37,000  Level Kansas City Center
04:37PM 38.9028 -97.7817 67° East 529 609 37,000  Level Kansas City Center
04:38PM 38.9572 -97.6128 67° East 534 615 37,000  Level Kansas City Center
04:39PM 39.0194 -97.4158 68° East 532 612 37,000  Level Kansas City Center
04:40PM 39.0728 -97.2469 68° East 533 613 37,000  Level Kansas City Center
04:41PM 39.1350 -97.0497 68° East 532 612 37,000  Level Kansas City Center
04:42PM 39.1878 -96.8811 68° East 532 612 37,000  Level Kansas City Center
04:43PM 39.2503 -96.6819 68° East 534 615 37,000  Level Kansas City Center
04:45PM 39.3011 -96.5106 69° East 533 613 37,000  Level Kansas City Center
04:46PM 39.3589 -96.3231 68° East 534 615 37,000  Level Kansas City Center
04:47PM 39.4133 -96.1414 69° East 531 611 37,000  Level Kansas City Center
04:48PM 39.4728 -95.9428 69° East 530 610 37,000  Level Kansas City Center
04:49PM 39.5239 -95.7714 69° East 529 609 37,000  Level Kansas City Center
04:51PM 39.6339 -95.4006 69° East 528 608 37,000  Level Kansas City Center
04:52PM 39.6836 -95.2300 69° East 525 604 37,000  Level Kansas City Center
04:53PM 39.7403 -95.0331 69° East 520 598 37,000  Level Kansas City Center
04:54PM 39.7892 -94.8642 69° East 519 597 37,000  Level Kansas City Center
04:55PM 39.8461 -94.6672 69° East 520 598 37,000  Level Kansas City Center
04:56PM 39.8950 -94.4986 69° East 519 597 37,000  Level Kansas City Center
04:57PM 39.9506 -94.3008 70° East 519 597 37,000  Level Kansas City Center
04:58PM 39.9978 -94.1319 70° East 518 596 37,000  Level Kansas City Center
04:59PM 40.0450 -93.9567 71° East 526 605 37,000  Level Kansas City Center
05:01PM 40.1411 -93.6058 70° East 517 595 37,000  Level Kansas City Center
05:02PM 40.1994 -93.3944 70° East 518 596 37,000  Level Kansas City Center
05:03PM 40.2467 -93.2194 70° East 514 592 37,000  Level Kansas City Center
05:04PM 40.2989 -93.0289 70° East 516 594 37,000  Level Kansas City Center
05:05PM 40.3447 -92.8614 70° East 512 589 37,000  Level Kansas City Center
05:06PM 40.3983 -92.6644 70° East 514 592 37,000  Level Kansas City Center
05:07PM 40.4442 -92.4861 71° East 515 593 37,000  Level Kansas City Center
05:08PM 40.4856 -92.3286 71° East 511 588 37,000  Level Kansas City Center
05:09PM 40.5406 -92.1153 71° East 514 592 37,000  Level Kansas City Center
05:10PM 40.5869 -91.9372 71° East 517 595 37,000  Level Kansas City Center
05:11PM 40.6319 -91.7575 72° East 519 597 37,000  Level Kansas City Center
05:12PM 40.6775 -91.5775 71° East 521 600 37,000  Level Kansas City Center
05:13PM 40.7228 -91.3978 72° East 521 600 37,000  Level Kansas City Center
05:14PM 40.7739 -91.1931 72° East 520 598 37,000  Level Kansas City Center
05:15PM 40.8192 -91.0111 72° East 520 598 37,000  Level Kansas City Center
05:17PM 40.8639 -90.8297 72° East 519 597 37,000  Level Kansas City Center
05:18PM 40.9081 -90.6478 72° East 519 597 37,000  Level Kansas City Center
05:19PM 40.9608 -90.4311 72° East 513 590 37,000  Level Chicago Center
05:20PM 41.0050 -90.2486 72° East 516 594 37,000  Level Chicago Center
05:21PM 41.0486 -90.0667 72° East 514 592 37,000  Level Chicago Center
05:22PM 41.0992 -89.8469 73° East 513 590 37,000  Level Chicago Center
05:23PM 41.1428 -89.6667 72° East 511 588 37,000  Level Chicago Center
05:24PM 41.1917 -89.4889 70° East 510 587 37,000  Level Chicago Center
05:25PM 41.2447 -89.3164 68° East 505 581 37,000  Level Chicago Center
05:26PM 41.3022 -89.1283 68° East 502 578 37,000  Level Chicago Center
05:27PM 41.3536 -88.9581 68° East 499 574 37,000  Level Chicago Center
05:28PM 41.4058 -88.7883 68° East 496 571 37,000  Level Chicago Center
05:29PM 41.4561 -88.6189 68° East 492 566 37,000  Level Chicago Center
05:30PM 41.5064 -88.4497 68° East 491 565 37,000  Level Chicago Center
05:31PM 41.5558 -88.2417 72° East 494 568 37,000  Level Chicago Center
05:32PM 41.5775 -88.0531 81° East 504 580 37,000  Level Chicago Center
05:33PM 41.5997 -87.8653 81° East 506 582 37,000  Level Chicago Center
05:34PM 41.6208 -87.6806 81° East 502 578 37,000  Level Chicago Center
05:35PM 41.6414 -87.4975 81° East 499 574 37,000 -840 Level Chicago Center
05:36PM 41.6619 -87.3139 81° East 501 577 35,300 -1,740 Descending Chicago Center
05:37PM 41.6822 -87.1364 81° East 487 560 33,500 -1,500 Descending Chicago Center
05:38PM 41.7050 -86.9275 82° East 476 548 32,200 -1,140 Descending Chicago Center
05:39PM 41.7225 -86.7539 82° East 473 544 31,200 -900 Descending Chicago Center
05:40PM 41.7400 -86.5964 81° East 467 537 30,400 -840 Descending Chicago Center
05:42PM 41.7572 -86.4289 82° East 457 526 29,500 -1,020 Descending Chicago Center
05:43PM 41.7833 -86.2378 80° East 437 503 28,400 -1,020 Descending Chicago Center
05:44PM 41.8142 -86.0861 75° East 423 487 27,500 -1,020 Descending Chicago Center
05:45PM 41.8433 -85.9353 75° East 420 483 26,400 -1,020 Descending Chicago Center
05:46PM 41.8719 -85.7875 75° East 410 472 25,500 -960 Descending Chicago Center
05:47PM 41.9000 -85.6386 76° East 409 471 24,500 -1,020 Descending Chicago Center
05:48PM 41.9281 -85.4897 76° East 408 470 23,400 -1,260 Descending Chicago Center
05:49PM 41.9261 -85.3367 91° East 413 475 21,900 -1,560 Descending Chicago Center
05:49PM 41.9172 -85.2494 98° East 409 471 21,200 -1,620 Descending Cleveland Center
05:50PM 41.8994 -85.1200 100° East 404 465 19,700 -1,140 Descending Cleveland Center
05:51PM 41.8758 -84.9731 102° East 399 459 19,000 -360 Descending Cleveland Center
05:52PM 41.8583 -84.8297 99° East 392 451 19,000  Level Cleveland Center
05:53PM 41.8578 -84.6736 90° East 402 463 19,000 -720 Level Cleveland Center
05:54PM 41.8508 -84.5169 93° East 415 478 17,600 -1,800 Descending Cleveland Center
05:55PM 41.8433 -84.3658 94° East 420 483 15,500 -2,220 Descending Cleveland Center
05:56PM 41.8367 -84.2539 95° East 400 460 13,900 -2,220 Descending Cleveland Center
05:56PM 41.8319 -84.2006 97° East 409 471 13,300 -1,860 Descending Cleveland Center
05:57PM 41.8289 -84.1028 92° East 390 449 12,000 -1,320 Descending Cleveland Center
05:57PM 41.8281 -84.0583 91° East 398 458 12,000 60 Level Cleveland Center
05:58PM 41.8619 -83.9736 62° Northeast 361 415 12,100  Climbing Cleveland Center
05:58PM 41.8772 -83.9439 55° Northeast 350 403 12,000  Descending Cleveland Center
05:59PM 41.9275 -83.8683 48° Northeast 360 414 12,100 60 Climbing Cleveland Center
05:59PM 41.9408 -83.8411 57° Northeast 345 397 12,100  Level Cleveland Center
06:00PM 41.9889 -83.7653 50° Northeast 359 413 12,100  Level Cleveland Center
06:00PM 42.0022 -83.7353 59° Northeast 350 403 12,100  Level Cleveland Center
06:01PM 42.0564 -83.6539 48° Northeast 359 413 12,100  Level Cleveland Center
06:02PM 42.1289 -83.5903 33° Northeast 288 331 12,100  Level Cleveland Center
06:03PM 42.1931 -83.5372 31° Northeast 268 308 12,100 -660 Level Cleveland Center
06:04PM 42.2650 -83.4928 25° Northeast 259 298 10,700 -1,620 Descending Cleveland Center
06:05PM 42.3303 -83.4650 17° North 255 293 8,800 -2,040 Descending Cleveland Center
06:06PM 42.3919 -83.4172 30° Northeast 252 290 6,900 -1,800 Descending Cleveland Center
06:07PM 42.4311 -83.3458 53° Northeast 261 300 5,200 -1,440 Descending Cleveland Center
06:08PM 42.3806 -83.2789 136° Southeast 246 283 4,000 -1,200 Descending Cleveland Center